createdAt,value
2022-10-10T00:00:49.116Z,19.17
2022-10-10T00:03:17.239Z,19.17
2022-10-10T00:05:45.167Z,19.18
2022-10-10T00:08:13.046Z,19.19
2022-10-10T00:10:42.303Z,19.21
2022-10-10T00:13:10.239Z,19.23
2022-10-10T00:15:38.127Z,19.26
2022-10-10T00:18:06.172Z,19.25
2022-10-10T00:20:34.053Z,19.26
2022-10-10T00:23:01.933Z,19.27
2022-10-10T00:25:29.784Z,19.27
2022-10-10T00:28:02.102Z,19.27
2022-10-10T00:30:30.020Z,19.25
2022-10-10T00:32:59.367Z,19.23
2022-10-10T00:35:27.341Z,19.22
2022-10-10T00:37:55.184Z,19.22
2022-10-10T00:40:23.293Z,19.22
2022-10-10T00:42:51.447Z,19.21
2022-10-10T00:45:27.880Z,19.22
2022-10-10T00:47:57.777Z,19.18
2022-10-10T00:50:25.641Z,19.21
2022-10-10T00:52:54.143Z,19.22
2022-10-10T00:55:22.135Z,19.23
2022-10-10T00:57:50.654Z,19.23
2022-10-10T01:00:18.929Z,19.25
2022-10-10T01:02:48.469Z,19.26
2022-10-10T01:05:16.737Z,19.27
2022-10-10T01:07:44.612Z,19.27
2022-10-10T01:10:13.633Z,19.25
2022-10-10T01:12:50.769Z,19.22
2022-10-10T01:15:22.275Z,19.26
2022-10-10T01:17:54.492Z,19.28
2022-10-10T01:20:39.061Z,19.21
2022-10-10T01:23:23.620Z,19.15
2022-10-10T01:25:58.848Z,19.29
2022-10-10T01:28:32.830Z,19.31
2022-10-10T01:31:00.804Z,19.32
2022-10-10T01:33:30.655Z,19.33
2022-10-10T01:36:00.300Z,19.26
2022-10-10T01:38:30.832Z,19.06
2022-10-10T01:41:02.087Z,19.06
2022-10-10T01:43:31.663Z,18.98
2022-10-10T01:45:59.657Z,18.91
2022-10-10T01:48:29.233Z,18.85
2022-10-10T01:51:06.187Z,18.78
2022-10-10T01:53:39.138Z,18.56
2022-10-10T01:56:09.507Z,18.61
2022-10-10T01:58:53.652Z,18.51
2022-10-10T02:01:23.612Z,18.35
2022-10-10T02:03:54.388Z,18.22
2022-10-10T02:06:23.551Z,18.03
2022-10-10T02:08:52.958Z,17.81
2022-10-10T02:11:20.872Z,17.62
2022-10-10T02:13:52.259Z,17.44
2022-10-10T02:16:22.074Z,17.32
2022-10-10T02:18:49.933Z,17.24
2022-10-10T02:21:17.846Z,17.13
2022-10-10T02:23:47.806Z,17.04
2022-10-10T02:26:17.337Z,16.96
2022-10-10T02:28:47.285Z,16.85
2022-10-10T02:31:18.224Z,16.76
2022-10-10T02:33:48.362Z,16.63
2022-10-10T02:36:16.251Z,16.62
2022-10-10T02:38:44.088Z,16.54
2022-10-10T02:41:12.642Z,16.46
2022-10-10T02:43:40.708Z,16.43
2022-10-10T02:46:10.220Z,16.37
2022-10-10T02:48:39.502Z,16.34
2022-10-10T02:51:07.619Z,16.33
2022-10-10T02:53:35.500Z,16.33
2022-10-10T02:56:03.415Z,16.34
2022-10-10T02:58:31.339Z,16.33
2022-10-10T03:00:59.348Z,16.32
2022-10-10T03:03:27.299Z,16.29
2022-10-10T03:05:56.507Z,16.28
2022-10-10T03:08:24.382Z,16.27
2022-10-10T03:10:56.697Z,16.26
2022-10-10T03:13:24.548Z,16.26
2022-10-10T03:15:52.545Z,16.25
2022-10-10T03:18:20.456Z,16.27
2022-10-10T03:20:48.472Z,16.23
2022-10-10T03:23:17.760Z,16.27
2022-10-10T03:25:45.627Z,16.26
2022-10-10T03:28:13.579Z,16.28
2022-10-10T03:30:41.527Z,16.26
2022-10-10T03:33:09.453Z,16.27
2022-10-10T03:35:37.291Z,16.26
2022-10-10T03:38:05.442Z,16.26
2022-10-10T03:40:34.795Z,16.25
2022-10-10T03:43:02.637Z,16.24
2022-10-10T03:45:30.637Z,16.21
2022-10-10T03:47:58.529Z,16.24
2022-10-10T03:50:26.402Z,16.25
2022-10-10T03:52:54.314Z,16.29
2022-10-10T03:55:22.162Z,16.32
2022-10-10T03:57:51.379Z,16.36
2022-10-10T04:00:19.395Z,16.37
2022-10-10T04:02:47.412Z,16.41
2022-10-10T04:05:15.401Z,16.44
2022-10-10T04:07:43.308Z,16.47
2022-10-10T04:10:11.371Z,16.43
2022-10-10T04:12:39.275Z,16.39
2022-10-10T04:15:09.704Z,16.33
2022-10-10T04:17:37.638Z,16.26
2022-10-10T04:20:06.216Z,16.18
2022-10-10T04:22:34.122Z,16.11
2022-10-10T04:25:01.986Z,16.05
2022-10-10T04:27:29.888Z,16.00
2022-10-10T04:29:57.790Z,15.97
2022-10-10T04:32:30.483Z,15.92
2022-10-10T04:34:58.785Z,15.89
2022-10-10T04:37:26.656Z,15.85
2022-10-10T04:39:54.501Z,15.80
2022-10-10T04:42:22.460Z,15.77
2022-10-10T04:44:50.320Z,15.72
2022-10-10T04:47:18.349Z,15.70
2022-10-10T04:49:47.726Z,15.65
2022-10-10T04:52:16.081Z,15.62
2022-10-10T04:54:43.980Z,15.59
2022-10-10T04:57:12.176Z,15.49
2022-10-10T04:59:40.065Z,15.56
2022-10-10T05:02:07.970Z,15.55
2022-10-10T05:04:36.081Z,15.52
2022-10-10T05:07:05.437Z,15.51
2022-10-10T05:09:33.780Z,15.51
2022-10-10T05:12:01.764Z,15.50
2022-10-10T05:14:29.802Z,15.48
2022-10-10T05:16:57.696Z,15.47
2022-10-10T05:19:25.859Z,15.45
2022-10-10T05:21:53.753Z,15.42
2022-10-10T05:24:23.612Z,15.42
2022-10-10T05:26:51.494Z,15.36
2022-10-10T05:29:19.444Z,15.36
2022-10-10T05:31:47.297Z,15.36
2022-10-10T05:34:15.512Z,15.35
2022-10-10T05:36:43.512Z,15.29
2022-10-10T05:39:11.413Z,15.31
2022-10-10T05:41:40.692Z,15.29
2022-10-10T05:44:09.274Z,15.29
2022-10-10T05:46:37.129Z,15.28
2022-10-10T05:49:05.068Z,15.29
2022-10-10T05:51:32.940Z,15.27
2022-10-10T05:54:00.836Z,15.30
2022-10-10T05:56:28.713Z,15.31
2022-10-10T05:58:57.983Z,15.32
2022-10-10T06:01:25.812Z,15.31
2022-10-10T06:03:56.080Z,15.32
2022-10-10T06:06:24.084Z,15.28
2022-10-10T06:08:51.995Z,15.16
2022-10-10T06:11:20.779Z,15.27
2022-10-10T06:13:52.619Z,15.26
2022-10-10T06:16:22.145Z,15.25
2022-10-10T06:18:50.087Z,15.25
2022-10-10T06:21:18.145Z,15.21
2022-10-10T06:23:50.046Z,14.95
2022-10-10T06:26:17.992Z,15.24
2022-10-10T06:28:45.944Z,15.24
2022-10-10T06:31:14.161Z,15.25
2022-10-10T06:33:45.640Z,15.23
2022-10-10T06:36:15.108Z,15.19
2022-10-10T06:38:43.772Z,15.20
2022-10-10T06:41:24.913Z,15.22
2022-10-10T06:43:52.774Z,15.20
2022-10-10T06:46:20.620Z,15.22
2022-10-10T06:48:49.931Z,15.20
2022-10-10T06:51:17.913Z,15.22
2022-10-10T06:53:45.976Z,15.20
2022-10-10T06:56:30.440Z,15.25
2022-10-10T06:59:02.288Z,15.08
2022-10-10T07:01:30.288Z,15.28
2022-10-10T07:03:59.757Z,15.29
2022-10-10T07:06:35.229Z,15.35
2022-10-10T07:09:03.469Z,15.33
2022-10-10T07:11:31.356Z,15.41
2022-10-10T07:13:59.248Z,15.46
2022-10-10T07:16:27.152Z,15.48
2022-10-10T07:18:55.200Z,15.53
2022-10-10T07:21:24.448Z,15.53
2022-10-10T07:23:52.330Z,15.62
2022-10-10T07:26:22.363Z,15.70
2022-10-10T07:28:50.365Z,15.75
2022-10-10T07:31:18.271Z,15.80
2022-10-10T07:33:50.968Z,15.79
2022-10-10T07:36:21.981Z,15.88
2022-10-10T07:38:55.312Z,15.95
2022-10-10T07:41:25.274Z,15.97
2022-10-10T07:43:55.515Z,16.03
2022-10-10T07:46:23.651Z,16.06
2022-10-10T07:48:51.677Z,16.15
2022-10-10T07:51:19.635Z,16.20
2022-10-10T07:53:47.805Z,16.24
2022-10-10T07:56:23.057Z,16.23
2022-10-10T07:58:51.591Z,16.33
2022-10-10T08:01:24.880Z,16.36
2022-10-10T08:03:52.807Z,16.41
2022-10-10T08:06:20.683Z,16.45
2022-10-10T08:08:51.741Z,16.52
2022-10-10T08:11:21.801Z,16.57
2022-10-10T08:13:50.062Z,16.61
2022-10-10T08:16:18.043Z,16.62
2022-10-10T08:18:46.006Z,16.74
2022-10-10T08:21:14.626Z,16.82
2022-10-10T08:23:42.686Z,16.88
2022-10-10T08:26:11.317Z,16.96
2022-10-10T08:28:40.794Z,17.04
2022-10-10T08:31:08.823Z,17.12
2022-10-10T08:33:36.741Z,17.16
2022-10-10T08:36:08.248Z,17.23
2022-10-10T08:38:38.567Z,17.28
2022-10-10T08:41:15.676Z,17.28
2022-10-10T08:43:48.839Z,17.40
2022-10-10T08:46:22.872Z,17.43
2022-10-10T08:48:50.801Z,17.42
2022-10-10T08:51:25.617Z,17.52
2022-10-10T08:53:54.631Z,17.56
2022-10-10T08:56:25.686Z,17.62
2022-10-10T08:58:56.514Z,17.66
2022-10-10T09:01:33.798Z,17.73
2022-10-10T09:04:02.032Z,17.82
2022-10-10T09:06:52.563Z,17.96
2022-10-10T09:09:23.258Z,18.00
2022-10-10T09:11:58.041Z,18.22
2022-10-10T09:14:34.683Z,18.32
2022-10-10T09:17:04.206Z,18.36
2022-10-10T09:19:39.319Z,18.33
2022-10-10T09:22:11.854Z,18.28
2022-10-10T09:24:43.522Z,18.25
2022-10-10T09:27:13.862Z,18.26
2022-10-10T09:29:45.043Z,18.36
2022-10-10T09:32:14.379Z,18.55
2022-10-10T09:34:43.550Z,18.72
2022-10-10T09:37:24.404Z,18.88
2022-10-10T09:40:04.269Z,18.94
2022-10-10T09:42:34.886Z,18.88
2022-10-10T09:45:25.139Z,18.65
2022-10-10T09:47:55.516Z,18.86
2022-10-10T09:50:23.595Z,19.04
2022-10-10T09:52:51.553Z,19.11
2022-10-10T09:55:27.575Z,19.17
2022-10-10T09:57:56.611Z,19.25
2022-10-10T10:00:34.767Z,19.28
2022-10-10T10:03:07.797Z,19.28
2022-10-10T10:05:35.759Z,19.38
2022-10-10T10:08:03.628Z,19.49
2022-10-10T10:10:31.566Z,19.57
2022-10-10T10:13:05.509Z,19.68
2022-10-10T10:15:37.655Z,19.82
2022-10-10T10:18:11.814Z,19.88
2022-10-10T10:20:40.391Z,19.92
2022-10-10T10:23:26.260Z,19.91
2022-10-10T10:26:01.305Z,19.86
2022-10-10T10:28:29.840Z,19.92
2022-10-10T10:30:59.653Z,20.02
2022-10-10T10:33:37.664Z,20.25
2022-10-10T10:36:11.800Z,20.41
2022-10-10T10:38:47.636Z,20.49
2022-10-10T10:41:19.522Z,20.41
2022-10-10T10:43:53.377Z,20.80
2022-10-10T10:46:28.871Z,20.47
2022-10-10T10:49:02.115Z,20.57
2022-10-10T10:51:49.545Z,21.06
2022-10-10T10:54:26.291Z,21.25
2022-10-10T10:57:01.983Z,21.28
2022-10-10T11:00:33.183Z,21.16
2022-10-10T11:03:05.701Z,21.13
2022-10-10T11:05:40.785Z,21.06
2022-10-10T11:08:40.176Z,21.22
2022-10-10T11:11:34.196Z,21.37
2022-10-10T11:14:03.855Z,21.46
2022-10-10T11:16:50.597Z,21.50
2022-10-10T11:19:36.521Z,21.34
2022-10-10T11:22:07.263Z,21.47
2022-10-10T11:24:43.045Z,21.91
2022-10-10T11:27:14.132Z,22.00
2022-10-10T11:29:50.698Z,22.10
2022-10-10T11:35:03.272Z,22.34
2022-10-10T11:37:32.119Z,22.34
2022-10-10T11:40:02.298Z,22.33
2022-10-10T11:42:32.635Z,22.23
2022-10-10T11:45:01.187Z,22.16
2022-10-10T11:47:32.352Z,21.95
2022-10-10T11:50:03.817Z,21.42
2022-10-10T11:52:40.803Z,21.53
2022-10-10T11:55:11.720Z,22.14
2022-10-10T11:57:41.886Z,22.79
2022-10-10T12:00:18.553Z,23.52
2022-10-10T12:02:50.078Z,24.20
2022-10-10T12:05:22.546Z,24.61
2022-10-10T12:08:01.509Z,24.92
2022-10-10T12:10:31.669Z,24.95
2022-10-10T12:13:02.738Z,25.14
2022-10-10T12:15:31.411Z,25.16
2022-10-10T12:17:59.396Z,25.04
2022-10-10T12:20:34.422Z,25.25
2022-10-10T12:23:34.794Z,25.63
2022-10-10T12:26:05.667Z,26.03
2022-10-10T12:28:37.757Z,26.22
2022-10-10T12:31:30.039Z,26.55
2022-10-10T12:34:36.700Z,26.81
2022-10-10T12:37:26.149Z,27.30
2022-10-10T12:40:29.367Z,27.67
2022-10-10T12:43:05.487Z,27.71
2022-10-10T12:45:59.270Z,27.53
2022-10-10T12:48:27.226Z,27.19
2022-10-10T12:51:01.805Z,27.40
2022-10-10T12:53:32.586Z,27.41
2022-10-10T12:56:01.657Z,27.34
2022-10-10T12:58:30.502Z,27.05
2022-10-10T13:01:02.786Z,27.26
2022-10-10T13:03:32.850Z,27.55
2022-10-10T13:06:04.331Z,27.84
2022-10-10T13:08:33.757Z,28.12
2022-10-10T13:11:06.968Z,28.42
2022-10-10T13:13:35.085Z,28.48
2022-10-10T13:16:07.926Z,28.52
2022-10-10T13:18:37.151Z,28.80
2022-10-10T13:21:06.086Z,29.14
2022-10-10T13:23:36.477Z,29.38
2022-10-10T13:26:04.635Z,29.45
2022-10-10T13:28:33.036Z,29.20
2022-10-10T13:31:01.170Z,28.29
2022-10-10T13:33:31.953Z,27.40
2022-10-10T13:36:06.022Z,27.45
2022-10-10T13:38:33.973Z,27.78
2022-10-10T13:41:05.388Z,27.78
2022-10-10T13:43:34.451Z,27.19
2022-10-10T13:46:03.493Z,27.06
2022-10-10T13:48:40.941Z,27.08
2022-10-10T13:51:10.598Z,26.37
2022-10-10T13:53:49.521Z,25.77
2022-10-10T13:56:26.929Z,25.86
2022-10-10T13:58:56.070Z,26.51
2022-10-10T14:01:30.726Z,26.91
2022-10-10T14:04:01.347Z,27.11
2022-10-10T14:06:29.512Z,27.14
2022-10-10T14:09:07.870Z,26.98
2022-10-10T14:11:41.233Z,27.06
2022-10-10T14:14:25.253Z,26.85
2022-10-10T14:17:00.254Z,26.19
2022-10-10T14:19:28.436Z,25.74
2022-10-10T14:21:57.188Z,25.80
2022-10-10T14:24:29.717Z,26.02
2022-10-10T14:26:59.124Z,26.47
2022-10-10T14:29:27.097Z,27.14
2022-10-10T14:31:55.056Z,27.78
2022-10-10T14:34:22.961Z,28.13
2022-10-10T14:36:51.399Z,28.08
2022-10-10T14:39:19.929Z,28.17
2022-10-10T14:41:48.027Z,28.19
2022-10-10T14:44:17.301Z,28.31
2022-10-10T14:46:45.351Z,28.43
2022-10-10T14:49:17.494Z,28.44
2022-10-10T14:51:45.499Z,28.35
2022-10-10T14:54:14.027Z,28.49
2022-10-10T14:57:07.453Z,28.53
2022-10-10T14:59:48.014Z,28.55
2022-10-10T15:02:21.299Z,28.46
2022-10-10T15:04:49.258Z,28.24
2022-10-10T15:07:18.329Z,28.15
2022-10-10T15:10:17.605Z,28.01
2022-10-10T15:12:42.679Z,27.79
2022-10-10T15:15:12.798Z,27.66
2022-10-10T15:17:41.095Z,27.41
2022-10-10T15:20:10.517Z,27.13
2022-10-10T15:22:38.529Z,26.64
2022-10-10T15:25:07.343Z,26.24
2022-10-10T15:27:35.298Z,25.91
2022-10-10T15:30:03.313Z,25.55
2022-10-10T15:32:40.746Z,24.63
2022-10-10T15:35:11.756Z,24.18
2022-10-10T15:37:39.693Z,23.42
2022-10-10T15:40:08.336Z,22.93
2022-10-10T15:42:36.272Z,22.44
2022-10-10T15:45:04.193Z,22.06
2022-10-10T15:47:33.790Z,21.79
2022-10-10T15:50:01.743Z,21.54
2022-10-10T15:52:32.721Z,21.40
2022-10-10T15:55:00.593Z,21.23
2022-10-10T15:57:28.476Z,21.03
2022-10-10T15:59:56.368Z,20.91
2022-10-10T16:02:24.372Z,20.80
2022-10-10T16:04:53.710Z,20.74
2022-10-10T16:07:29.175Z,20.74
2022-10-10T16:09:59.002Z,20.70
2022-10-10T16:12:27.085Z,20.62
2022-10-10T16:14:55.398Z,20.50
2022-10-10T16:17:24.678Z,20.41
2022-10-10T16:20:00.245Z,20.22
2022-10-10T16:22:28.133Z,20.26
2022-10-10T16:25:22.011Z,20.12
2022-10-10T16:27:51.884Z,20.11
2022-10-10T16:30:20.957Z,20.05
2022-10-10T16:32:49.364Z,20.00
2022-10-10T16:35:19.198Z,19.89
2022-10-10T16:37:47.200Z,19.87
2022-10-10T16:40:21.158Z,19.71
2022-10-10T16:42:49.209Z,19.58
2022-10-10T16:45:17.157Z,19.47
2022-10-10T16:47:45.107Z,19.42
2022-10-10T16:50:13.295Z,19.35
2022-10-10T16:52:48.221Z,19.03
2022-10-10T16:55:16.238Z,19.12
2022-10-10T16:57:44.201Z,19.13
2022-10-10T17:00:12.814Z,18.97
2022-10-10T17:02:42.420Z,19.04
2022-10-10T17:05:10.734Z,19.00
2022-10-10T17:07:38.622Z,18.92
2022-10-10T17:10:09.300Z,18.84
2022-10-10T17:12:37.453Z,18.71
2022-10-10T17:15:06.811Z,18.54
2022-10-10T17:17:35.395Z,18.69
2022-10-10T17:20:03.267Z,18.64
2022-10-10T17:22:31.833Z,18.62
2022-10-10T17:24:59.800Z,18.59
2022-10-10T17:27:29.105Z,18.56
2022-10-10T17:29:57.168Z,18.48
2022-10-10T17:32:26.518Z,18.39
2022-10-10T17:34:55.681Z,18.31
2022-10-10T17:37:26.327Z,18.26
2022-10-10T17:39:54.332Z,18.10
2022-10-10T17:42:22.430Z,18.15
2022-10-10T17:44:56.192Z,18.04
2022-10-10T17:47:27.032Z,17.95
2022-10-10T17:49:54.982Z,17.91
2022-10-10T17:52:25.538Z,17.86
2022-10-10T17:54:53.494Z,17.82
2022-10-10T17:57:21.343Z,17.77
2022-10-10T17:59:49.312Z,17.71
2022-10-10T18:02:19.121Z,17.62
2022-10-10T18:04:47.073Z,17.54
2022-10-10T18:07:15.172Z,17.48
2022-10-10T18:09:46.117Z,17.47
2022-10-10T18:12:14.037Z,17.43
2022-10-10T18:14:41.881Z,17.36
2022-10-10T18:17:09.778Z,17.32
2022-10-10T18:19:39.027Z,17.24
2022-10-10T18:22:07.099Z,17.25
2022-10-10T18:24:34.958Z,17.21
2022-10-10T18:27:02.861Z,17.17
2022-10-10T18:29:30.710Z,17.13
2022-10-10T18:31:58.621Z,17.09
2022-10-10T18:34:26.721Z,17.03
2022-10-10T18:36:56.072Z,16.95
2022-10-10T18:39:25.194Z,16.85
2022-10-10T18:41:55.329Z,16.81
2022-10-10T18:44:23.213Z,16.79
2022-10-10T18:46:51.215Z,16.76
2022-10-10T18:49:19.549Z,16.70
2022-10-10T18:51:47.447Z,16.66
2022-10-10T18:54:17.522Z,16.64
2022-10-10T18:56:45.842Z,16.60
2022-10-10T18:59:23.081Z,16.55
2022-10-10T19:01:52.565Z,16.48
2022-10-10T19:04:22.633Z,16.43
2022-10-10T19:06:54.657Z,16.41
2022-10-10T19:09:29.709Z,16.36
2022-10-10T19:11:57.664Z,16.23
2022-10-10T19:14:25.520Z,16.26
2022-10-10T19:16:53.412Z,16.14
2022-10-10T19:19:21.393Z,16.04
2022-10-10T19:21:52.412Z,15.96
2022-10-10T19:24:21.390Z,15.88
2022-10-10T19:26:55.956Z,15.79
2022-10-10T19:29:24.182Z,15.69
2022-10-10T19:31:52.250Z,15.65
2022-10-10T19:34:20.181Z,15.66
2022-10-10T19:36:48.059Z,15.70
2022-10-10T19:39:19.316Z,15.69
2022-10-10T19:41:50.103Z,15.34
2022-10-10T19:44:19.583Z,15.67
2022-10-10T19:46:47.977Z,15.69
2022-10-10T19:49:18.437Z,15.73
2022-10-10T19:51:47.559Z,15.73
2022-10-10T19:54:16.056Z,15.66
2022-10-10T19:56:43.960Z,15.59
2022-10-10T19:59:11.891Z,15.54
2022-10-10T20:01:41.293Z,15.46
2022-10-10T20:04:09.271Z,15.26
2022-10-10T20:06:37.445Z,15.24
2022-10-10T20:09:10.367Z,15.18
2022-10-10T20:11:38.910Z,15.19
2022-10-10T20:14:06.863Z,15.14
2022-10-10T20:16:34.688Z,15.26
2022-10-10T20:19:04.141Z,15.13
2022-10-10T20:21:32.887Z,15.16
2022-10-10T20:24:01.336Z,15.12
2022-10-10T20:26:29.313Z,15.06
2022-10-10T20:28:57.683Z,15.04
2022-10-10T20:31:26.843Z,15.03
2022-10-10T20:33:55.890Z,15.07
2022-10-10T20:36:27.477Z,15.01
2022-10-10T20:38:55.634Z,14.95
2022-10-10T20:41:24.553Z,14.98
2022-10-10T20:43:58.148Z,14.91
2022-10-10T20:46:26.651Z,14.94
2022-10-10T20:48:54.994Z,14.96
2022-10-10T20:51:22.890Z,14.97
2022-10-10T20:53:57.186Z,14.99
2022-10-10T20:56:25.872Z,15.00
2022-10-10T20:58:54.135Z,15.01
2022-10-10T21:01:23.094Z,14.97
2022-10-10T21:03:51.041Z,14.90
2022-10-10T21:06:19.616Z,14.88
2022-10-10T21:08:47.494Z,14.87
2022-10-10T21:11:16.913Z,14.88
2022-10-10T21:13:45.751Z,14.84
2022-10-10T21:16:14.836Z,14.81
2022-10-10T21:18:44.604Z,14.77
2022-10-10T21:21:21.636Z,14.76
2022-10-10T21:23:52.695Z,14.72
2022-10-10T21:26:24.671Z,14.70
2022-10-10T21:28:52.757Z,14.63
2022-10-10T21:31:21.598Z,14.64
2022-10-10T21:33:49.420Z,14.65
2022-10-10T21:36:17.563Z,14.66
2022-10-10T21:38:45.460Z,14.62
2022-10-10T21:41:16.175Z,14.55
2022-10-10T21:43:46.264Z,14.51
2022-10-10T21:46:15.338Z,14.48
2022-10-10T21:48:43.385Z,14.47
2022-10-10T21:51:11.273Z,14.49
2022-10-10T21:53:39.140Z,14.49
2022-10-10T21:56:08.971Z,14.47
2022-10-10T21:58:37.766Z,14.49
2022-10-10T22:01:10.512Z,14.53
2022-10-10T22:03:38.484Z,14.52
2022-10-10T22:06:07.185Z,14.50
2022-10-10T22:08:35.616Z,14.46
2022-10-10T22:11:03.705Z,14.42
2022-10-10T22:13:31.611Z,14.41
2022-10-10T22:15:59.704Z,14.35
2022-10-10T22:18:29.006Z,14.21
2022-10-10T22:20:56.920Z,14.14
2022-10-10T22:23:24.828Z,14.07
2022-10-10T22:25:52.732Z,14.03
2022-10-10T22:28:20.687Z,14.07
2022-10-10T22:30:48.588Z,14.15
2022-10-10T22:33:16.480Z,14.21
2022-10-10T22:35:45.785Z,14.18
2022-10-10T22:38:13.629Z,14.07
2022-10-10T22:40:41.460Z,13.98
2022-10-10T22:43:09.310Z,13.92
2022-10-10T22:45:37.229Z,13.93
2022-10-10T22:48:05.216Z,13.93
2022-10-10T22:50:33.652Z,13.95
2022-10-10T22:53:03.023Z,13.93
2022-10-10T22:55:31.248Z,13.87
2022-10-10T22:57:59.111Z,13.84
2022-10-10T23:00:27.075Z,13.84
2022-10-10T23:02:57.947Z,13.82
2022-10-10T23:05:25.989Z,13.79
2022-10-10T23:07:53.928Z,13.79
2022-10-10T23:10:23.165Z,13.77
2022-10-10T23:12:51.068Z,13.75
2022-10-10T23:15:18.941Z,13.74
2022-10-10T23:17:46.800Z,13.75
2022-10-10T23:20:14.736Z,13.75
2022-10-10T23:22:42.592Z,13.76
2022-10-10T23:25:10.656Z,13.73
2022-10-10T23:27:39.904Z,13.74
2022-10-10T23:30:08.565Z,13.70
2022-10-10T23:32:36.428Z,13.64
2022-10-10T23:35:04.351Z,13.61
2022-10-10T23:37:32.219Z,13.58
2022-10-10T23:40:00.141Z,13.52
2022-10-10T23:42:28.046Z,13.41
2022-10-10T23:44:57.304Z,13.37
2022-10-10T23:47:25.174Z,13.12
2022-10-10T23:49:52.993Z,13.41
2022-10-10T23:52:20.858Z,13.40
2022-10-10T23:54:48.700Z,13.04
2022-10-10T23:57:16.591Z,13.41
2022-10-10T23:59:44.441Z,13.39
